South Wardsboro, Vermont
Current Conditions -  °F | °C
As of 5:11 PM on Thursday 23 Oct 2014 (Local Time) from KDDH Reporting Station
Overcast Overcast  
Wind Chill: 42°   Ceiling: 900
Heat Index: 45°   Visibility: 10mi
Dew Point: 42°   Wind: 6mph
Humidity: 90%   Direction: 320°NW
Pressure: 29.78"   Gusts: NA
Location:  43.0205°N, 72.8064°W
Report Text: KDDH 232111Z AUTO 32005KT 10SM OVC009 07/06 A2978 RMK AO2 T00720056
Loading
Personal Weather Stations






























Interactive Weather Map New forecast layout! Learn more

10-Day Weather Forecast

Advertisements
Track Severe Weather on mobile